sensor_id;sensor_type;location;lat;lon;timestamp;P1;durP1;ratioP1;P2;durP2;ratioP2
76125;SDS011;65174;48.138;21.002;2023-06-10T00:00:21;8.40;;;3.40;;
76125;SDS011;65174;48.138;21.002;2023-06-10T00:03:24;5.32;;;3.53;;
76125;SDS011;65174;48.138;21.002;2023-06-10T00:06:27;4.75;;;3.22;;
76125;SDS011;65174;48.138;21.002;2023-06-10T00:09:30;6.93;;;2.95;;
76125;SDS011;65174;48.138;21.002;2023-06-10T00:12:32;4.38;;;3.85;;
76125;SDS011;65174;48.138;21.002;2023-06-10T00:15:38;5.00;;;3.23;;
76125;SDS011;65174;48.138;21.002;2023-06-10T00:18:41;4.15;;;3.33;;
76125;SDS011;65174;48.138;21.002;2023-06-10T00:21:43;4.97;;;3.03;;
76125;SDS011;65174;48.138;21.002;2023-06-10T00:24:46;4.43;;;3.15;;
76125;SDS011;65174;48.138;21.002;2023-06-10T00:27:49;7.90;;;3.95;;
76125;SDS011;65174;48.138;21.002;2023-06-10T00:30:51;4.03;;;3.07;;
76125;SDS011;65174;48.138;21.002;2023-06-10T00:33:53;5.60;;;2.85;;
76125;SDS011;65174;48.138;21.002;2023-06-10T00:36:55;4.10;;;2.88;;
76125;SDS011;65174;48.138;21.002;2023-06-10T00:39:57;3.97;;;3.40;;
76125;SDS011;65174;48.138;21.002;2023-06-10T00:42:59;4.65;;;3.20;;
76125;SDS011;65174;48.138;21.002;2023-06-10T00:46:01;5.07;;;3.57;;
76125;SDS011;65174;48.138;21.002;2023-06-10T00:49:03;6.35;;;3.47;;
76125;SDS011;65174;48.138;21.002;2023-06-10T00:52:06;11.85;;;4.30;;
76125;SDS011;65174;48.138;21.002;2023-06-10T00:55:08;5.68;;;3.15;;
76125;SDS011;65174;48.138;21.002;2023-06-10T00:58:11;4.47;;;3.67;;
76125;SDS011;65174;48.138;21.002;2023-06-10T01:01:14;5.03;;;3.10;;
76125;SDS011;65174;48.138;21.002;2023-06-10T01:04:16;4.80;;;3.30;;
76125;SDS011;65174;48.138;21.002;2023-06-10T01:07:22;6.55;;;3.47;;
76125;SDS011;65174;48.138;21.002;2023-06-10T01:13:36;5.63;;;3.08;;
76125;SDS011;65174;48.138;21.002;2023-06-10T01:16:42;3.30;;;2.77;;
76125;SDS011;65174;48.138;21.002;2023-06-10T01:19:54;2.75;;;2.47;;
76125;SDS011;65174;48.138;21.002;2023-06-10T01:22:57;7.90;;;3.03;;
76125;SDS011;65174;48.138;21.002;2023-06-10T01:26:01;2.90;;;2.65;;
76125;SDS011;65174;48.138;21.002;2023-06-10T01:29:10;3.75;;;2.70;;
76125;SDS011;65174;48.138;21.002;2023-06-10T01:32:26;3.03;;;2.70;;
76125;SDS011;65174;48.138;21.002;2023-06-10T01:35:34;3.10;;;2.25;;
76125;SDS011;65174;48.138;21.002;2023-06-10T01:38:42;3.38;;;2.60;;
76125;SDS011;65174;48.138;21.002;2023-06-10T01:41:45;3.45;;;2.55;;
76125;SDS011;65174;48.138;21.002;2023-06-10T01:44:48;5.82;;;2.33;;
76125;SDS011;65174;48.138;21.002;2023-06-10T01:47:51;2.50;;;2.27;;
76125;SDS011;65174;48.138;21.002;2023-06-10T01:50:53;7.28;;;2.95;;
76125;SDS011;65174;48.138;21.002;2023-06-10T01:53:57;3.72;;;2.58;;
76125;SDS011;65174;48.138;21.002;2023-06-10T01:56:59;3.28;;;2.80;;
76125;SDS011;65174;48.138;21.002;2023-06-10T02:00:02;2.95;;;2.60;;
76125;SDS011;65174;48.138;21.002;2023-06-10T02:03:15;3.50;;;2.67;;
76125;SDS011;65174;48.138;21.002;2023-06-10T02:06:17;5.13;;;2.30;;
76125;SDS011;65174;48.138;21.002;2023-06-10T02:09:19;10.35;;;2.80;;
76125;SDS011;65174;48.138;21.002;2023-06-10T02:12:21;3.85;;;2.70;;
76125;SDS011;65174;48.138;21.002;2023-06-10T02:15:23;3.95;;;2.70;;
76125;SDS011;65174;48.138;21.002;2023-06-10T02:18:25;5.30;;;2.83;;
76125;SDS011;65174;48.138;21.002;2023-06-10T02:21:28;4.88;;;2.28;;
76125;SDS011;65174;48.138;21.002;2023-06-10T02:24:30;5.72;;;2.67;;
76125;SDS011;65174;48.138;21.002;2023-06-10T02:27:32;8.48;;;2.58;;
76125;SDS011;65174;48.138;21.002;2023-06-10T02:30:34;3.28;;;2.97;;
76125;SDS011;65174;48.138;21.002;2023-06-10T02:33:38;2.90;;;2.43;;
76125;SDS011;65174;48.138;21.002;2023-06-10T02:36:42;5.13;;;3.25;;
76125;SDS011;65174;48.138;21.002;2023-06-10T02:39:44;3.72;;;2.65;;
76125;SDS011;65174;48.138;21.002;2023-06-10T02:42:46;3.15;;;2.60;;
76125;SDS011;65174;48.138;21.002;2023-06-10T02:45:48;4.63;;;2.45;;
76125;SDS011;65174;48.138;21.002;2023-06-10T02:48:51;3.10;;;2.60;;
76125;SDS011;65174;48.138;21.002;2023-06-10T02:51:56;4.45;;;2.30;;
76125;SDS011;65174;48.138;21.002;2023-06-10T02:54:58;3.95;;;2.83;;
76125;SDS011;65174;48.138;21.002;2023-06-10T02:58:01;2.83;;;2.53;;
76125;SDS011;65174;48.138;21.002;2023-06-10T03:01:05;3.13;;;2.40;;
76125;SDS011;65174;48.138;21.002;2023-06-10T03:04:16;4.00;;;2.33;;
76125;SDS011;65174;48.138;21.002;2023-06-10T03:07:28;3.97;;;3.10;;
76125;SDS011;65174;48.138;21.002;2023-06-10T03:10:30;4.13;;;2.97;;
76125;SDS011;65174;48.138;21.002;2023-06-10T03:13:35;3.08;;;2.53;;
76125;SDS011;65174;48.138;21.002;2023-06-10T03:16:37;3.33;;;2.60;;
76125;SDS011;65174;48.138;21.002;2023-06-10T03:19:44;5.80;;;3.30;;
76125;SDS011;65174;48.138;21.002;2023-06-10T03:22:47;2.83;;;2.33;;
76125;SDS011;65174;48.138;21.002;2023-06-10T03:25:49;3.33;;;2.67;;
76125;SDS011;65174;48.138;21.002;2023-06-10T03:28:53;6.20;;;2.78;;
76125;SDS011;65174;48.138;21.002;2023-06-10T03:31:57;4.40;;;3.00;;
76125;SDS011;65174;48.138;21.002;2023-06-10T03:35:00;3.87;;;3.27;;
76125;SDS011;65174;48.138;21.002;2023-06-10T03:38:04;6.85;;;2.75;;
76125;SDS011;65174;48.138;21.002;2023-06-10T03:41:06;7.10;;;4.13;;
76125;SDS011;65174;48.138;21.002;2023-06-10T03:44:09;4.10;;;2.97;;
76125;SDS011;65174;48.138;21.002;2023-06-10T03:47:11;3.70;;;2.63;;
76125;SDS011;65174;48.138;21.002;2023-06-10T03:50:14;4.43;;;2.50;;
76125;SDS011;65174;48.138;21.002;2023-06-10T03:53:18;7.10;;;2.92;;
76125;SDS011;65174;48.138;21.002;2023-06-10T03:56:21;4.25;;;3.10;;
76125;SDS011;65174;48.138;21.002;2023-06-10T03:59:23;4.47;;;3.03;;
76125;SDS011;65174;48.138;21.002;2023-06-10T04:02:25;4.90;;;3.22;;
76125;SDS011;65174;48.138;21.002;2023-06-10T04:05:27;4.17;;;3.10;;
76125;SDS011;65174;48.138;21.002;2023-06-10T04:08:31;3.78;;;3.08;;
76125;SDS011;65174;48.138;21.002;2023-06-10T04:11:34;4.22;;;2.83;;
76125;SDS011;65174;48.138;21.002;2023-06-10T04:14:36;4.82;;;3.53;;
76125;SDS011;65174;48.138;21.002;2023-06-10T04:17:40;4.15;;;2.75;;
76125;SDS011;65174;48.138;21.002;2023-06-10T04:20:43;4.50;;;2.50;;
76125;SDS011;65174;48.138;21.002;2023-06-10T04:23:47;4.85;;;3.17;;
76125;SDS011;65174;48.138;21.002;2023-06-10T04:26:49;4.03;;;3.45;;
76125;SDS011;65174;48.138;21.002;2023-06-10T04:29:52;5.05;;;2.92;;
76125;SDS011;65174;48.138;21.002;2023-06-10T04:32:54;5.35;;;3.03;;
76125;SDS011;65174;48.138;21.002;2023-06-10T04:35:56;3.80;;;3.00;;
76125;SDS011;65174;48.138;21.002;2023-06-10T04:39:02;6.72;;;2.97;;
76125;SDS011;65174;48.138;21.002;2023-06-10T04:42:05;4.43;;;2.53;;
76125;SDS011;65174;48.138;21.002;2023-06-10T04:45:07;3.55;;;3.05;;
76125;SDS011;65174;48.138;21.002;2023-06-10T04:48:11;4.07;;;3.08;;
76125;SDS011;65174;48.138;21.002;2023-06-10T04:51:13;4.23;;;3.23;;
76125;SDS011;65174;48.138;21.002;2023-06-10T04:54:15;3.67;;;2.88;;
76125;SDS011;65174;48.138;21.002;2023-06-10T04:57:17;7.97;;;3.88;;
76125;SDS011;65174;48.138;21.002;2023-06-10T05:00:20;3.60;;;2.70;;
76125;SDS011;65174;48.138;21.002;2023-06-10T05:03:21;4.38;;;3.15;;
76125;SDS011;65174;48.138;21.002;2023-06-10T05:06:24;3.50;;;3.17;;
76125;SDS011;65174;48.138;21.002;2023-06-10T05:09:26;6.78;;;3.10;;
76125;SDS011;65174;48.138;21.002;2023-06-10T05:12:28;5.00;;;3.05;;
76125;SDS011;65174;48.138;21.002;2023-06-10T05:15:30;5.30;;;3.33;;
76125;SDS011;65174;48.138;21.002;2023-06-10T05:18:32;4.80;;;3.50;;
76125;SDS011;65174;48.138;21.002;2023-06-10T05:21:34;5.30;;;3.50;;
76125;SDS011;65174;48.138;21.002;2023-06-10T05:24:36;4.05;;;3.42;;
76125;SDS011;65174;48.138;21.002;2023-06-10T05:27:38;5.53;;;3.30;;
76125;SDS011;65174;48.138;21.002;2023-06-10T05:30:41;5.25;;;3.28;;
76125;SDS011;65174;48.138;21.002;2023-06-10T05:33:43;9.88;;;3.40;;
76125;SDS011;65174;48.138;21.002;2023-06-10T05:36:45;3.07;;;2.63;;
76125;SDS011;65174;48.138;21.002;2023-06-10T05:39:47;3.72;;;2.75;;
76125;SDS011;65174;48.138;21.002;2023-06-10T05:42:49;5.45;;;3.10;;
76125;SDS011;65174;48.138;21.002;2023-06-10T05:45:52;3.55;;;2.83;;
76125;SDS011;65174;48.138;21.002;2023-06-10T05:48:54;5.78;;;3.47;;
76125;SDS011;65174;48.138;21.002;2023-06-10T05:51:56;4.63;;;3.27;;
76125;SDS011;65174;48.138;21.002;2023-06-10T05:54:59;9.32;;;2.95;;
76125;SDS011;65174;48.138;21.002;2023-06-10T05:58:01;3.33;;;2.60;;
76125;SDS011;65174;48.138;21.002;2023-06-10T06:01:03;6.00;;;3.67;;
76125;SDS011;65174;48.138;21.002;2023-06-10T06:04:06;5.35;;;3.13;;
76125;SDS011;65174;48.138;21.002;2023-06-10T06:07:07;5.60;;;3.60;;
76125;SDS011;65174;48.138;21.002;2023-06-10T06:10:09;5.38;;;3.17;;
76125;SDS011;65174;48.138;21.002;2023-06-10T06:13:11;4.53;;;3.38;;
76125;SDS011;65174;48.138;21.002;2023-06-10T06:16:13;4.18;;;2.45;;
76125;SDS011;65174;48.138;21.002;2023-06-10T06:19:15;5.25;;;2.88;;
76125;SDS011;65174;48.138;21.002;2023-06-10T06:22:17;5.17;;;3.20;;
76125;SDS011;65174;48.138;21.002;2023-06-10T06:25:22;4.13;;;3.33;;
76125;SDS011;65174;48.138;21.002;2023-06-10T06:28:26;3.30;;;2.58;;
76125;SDS011;65174;48.138;21.002;2023-06-10T06:31:30;8.52;;;3.90;;
76125;SDS011;65174;48.138;21.002;2023-06-10T06:34:33;3.47;;;3.05;;
76125;SDS011;65174;48.138;21.002;2023-06-10T06:37:35;4.50;;;3.30;;
76125;SDS011;65174;48.138;21.002;2023-06-10T06:41:00;5.10;;;3.45;;
76125;SDS011;65174;48.138;21.002;2023-06-10T06:44:04;4.22;;;2.83;;
76125;SDS011;65174;48.138;21.002;2023-06-10T06:47:12;4.25;;;3.08;;
76125;SDS011;65174;48.138;21.002;2023-06-10T06:50:14;4.00;;;2.78;;
76125;SDS011;65174;48.138;21.002;2023-06-10T06:53:16;2.60;;;2.30;;
76125;SDS011;65174;48.138;21.002;2023-06-10T06:56:41;4.88;;;2.40;;
76125;SDS011;65174;48.138;21.002;2023-06-10T07:00:06;3.05;;;2.75;;
76125;SDS011;65174;48.138;21.002;2023-06-10T07:03:30;3.70;;;3.10;;
76125;SDS011;65174;48.138;21.002;2023-06-10T07:07:07;3.60;;;2.45;;
76125;SDS011;65174;48.138;21.002;2023-06-10T07:10:10;4.53;;;2.93;;
76125;SDS011;65174;48.138;21.002;2023-06-10T07:13:13;4.18;;;3.38;;
76125;SDS011;65174;48.138;21.002;2023-06-10T07:16:15;3.40;;;2.92;;
76125;SDS011;65174;48.138;21.002;2023-06-10T07:19:17;2.70;;;2.17;;
76125;SDS011;65174;48.138;21.002;2023-06-10T07:22:19;3.28;;;2.30;;
76125;SDS011;65174;48.138;21.002;2023-06-10T07:25:21;3.17;;;2.80;;
76125;SDS011;65174;48.138;21.002;2023-06-10T07:28:23;3.20;;;2.58;;
76125;SDS011;65174;48.138;21.002;2023-06-10T07:31:26;3.45;;;2.13;;
76125;SDS011;65174;48.138;21.002;2023-06-10T07:34:28;2.72;;;2.45;;
76125;SDS011;65174;48.138;21.002;2023-06-10T07:37:30;2.60;;;2.35;;
76125;SDS011;65174;48.138;21.002;2023-06-10T07:40:32;3.00;;;2.70;;
76125;SDS011;65174;48.138;21.002;2023-06-10T07:43:36;3.70;;;2.25;;
76125;SDS011;65174;48.138;21.002;2023-06-10T07:46:38;2.60;;;2.40;;
76125;SDS011;65174;48.138;21.002;2023-06-10T07:49:40;2.75;;;2.20;;
76125;SDS011;65174;48.138;21.002;2023-06-10T07:52:43;3.75;;;2.55;;
76125;SDS011;65174;48.138;21.002;2023-06-10T07:55:45;5.10;;;3.20;;
76125;SDS011;65174;48.138;21.002;2023-06-10T07:58:47;4.18;;;2.40;;
76125;SDS011;65174;48.138;21.002;2023-06-10T08:01:49;2.78;;;2.30;;
76125;SDS011;65174;48.138;21.002;2023-06-10T08:04:51;5.18;;;2.30;;
76125;SDS011;65174;48.138;21.002;2023-06-10T08:07:53;3.08;;;2.47;;
76125;SDS011;65174;48.138;21.002;2023-06-10T08:10:55;2.77;;;2.13;;
76125;SDS011;65174;48.138;21.002;2023-06-10T08:13:57;2.47;;;2.10;;
76125;SDS011;65174;48.138;21.002;2023-06-10T08:16:59;3.10;;;2.42;;
76125;SDS011;65174;48.138;21.002;2023-06-10T08:20:02;3.00;;;2.40;;
76125;SDS011;65174;48.138;21.002;2023-06-10T08:23:04;2.50;;;2.30;;
76125;SDS011;65174;48.138;21.002;2023-06-10T08:26:06;4.90;;;2.70;;
76125;SDS011;65174;48.138;21.002;2023-06-10T08:29:08;2.47;;;1.98;;
76125;SDS011;65174;48.138;21.002;2023-06-10T08:32:10;2.20;;;2.00;;
76125;SDS011;65174;48.138;21.002;2023-06-10T08:35:12;2.58;;;2.33;;
76125;SDS011;65174;48.138;21.002;2023-06-10T08:38:14;3.25;;;1.98;;
76125;SDS011;65174;48.138;21.002;2023-06-10T08:41:17;2.30;;;2.10;;
76125;SDS011;65174;48.138;21.002;2023-06-10T08:44:22;2.80;;;2.08;;
76125;SDS011;65174;48.138;21.002;2023-06-10T08:47:30;2.42;;;1.92;;
76125;SDS011;65174;48.138;21.002;2023-06-10T08:50:40;2.40;;;2.15;;
76125;SDS011;65174;48.138;21.002;2023-06-10T08:53:46;2.55;;;2.08;;
76125;SDS011;65174;48.138;21.002;2023-06-10T08:56:54;1.83;;;1.63;;
76125;SDS011;65174;48.138;21.002;2023-06-10T08:59:58;2.92;;;2.03;;
76125;SDS011;65174;48.138;21.002;2023-06-10T09:03:01;2.00;;;1.85;;
76125;SDS011;65174;48.138;21.002;2023-06-10T09:06:05;3.97;;;2.30;;
76125;SDS011;65174;48.138;21.002;2023-06-10T09:09:08;4.45;;;2.28;;
76125;SDS011;65174;48.138;21.002;2023-06-10T09:12:13;2.73;;;2.20;;
76125;SDS011;65174;48.138;21.002;2023-06-10T09:15:16;2.03;;;1.83;;
76125;SDS011;65174;48.138;21.002;2023-06-10T09:18:18;2.05;;;1.80;;
76125;SDS011;65174;48.138;21.002;2023-06-10T09:21:24;2.83;;;2.53;;
76125;SDS011;65174;48.138;21.002;2023-06-10T09:24:26;2.35;;;1.83;;
76125;SDS011;65174;48.138;21.002;2023-06-10T09:27:31;1.77;;;1.63;;
76125;SDS011;65174;48.138;21.002;2023-06-10T09:30:34;2.55;;;2.00;;
76125;SDS011;65174;48.138;21.002;2023-06-10T09:33:36;3.80;;;1.75;;
76125;SDS011;65174;48.138;21.002;2023-06-10T09:36:43;1.67;;;1.58;;
76125;SDS011;65174;48.138;21.002;2023-06-10T09:39:52;1.92;;;1.73;;
76125;SDS011;65174;48.138;21.002;2023-06-10T09:43:03;1.77;;;1.67;;
76125;SDS011;65174;48.138;21.002;2023-06-10T09:46:05;4.13;;;2.03;;
76125;SDS011;65174;48.138;21.002;2023-06-10T09:49:07;2.13;;;1.70;;
76125;SDS011;65174;48.138;21.002;2023-06-10T09:52:09;2.42;;;2.22;;
76125;SDS011;65174;48.138;21.002;2023-06-10T09:55:11;2.10;;;1.90;;
76125;SDS011;65174;48.138;21.002;2023-06-10T09:58:14;2.00;;;1.37;;
76125;SDS011;65174;48.138;21.002;2023-06-10T10:01:16;2.10;;;1.90;;
76125;SDS011;65174;48.138;21.002;2023-06-10T10:04:23;1.75;;;1.63;;
76125;SDS011;65174;48.138;21.002;2023-06-10T10:07:26;1.60;;;1.50;;
76125;SDS011;65174;48.138;21.002;2023-06-10T10:10:28;2.20;;;1.77;;
76125;SDS011;65174;48.138;21.002;2023-06-10T10:13:30;2.43;;;2.23;;
76125;SDS011;65174;48.138;21.002;2023-06-10T10:16:36;2.25;;;2.03;;
76125;SDS011;65174;48.138;21.002;2023-06-10T10:19:48;2.45;;;1.98;;
76125;SDS011;65174;48.138;21.002;2023-06-10T10:22:56;4.10;;;1.77;;
76125;SDS011;65174;48.138;21.002;2023-06-10T10:26:00;3.40;;;1.98;;
76125;SDS011;65174;48.138;21.002;2023-06-10T10:29:10;2.60;;;2.10;;
76125;SDS011;65174;48.138;21.002;2023-06-10T10:32:17;2.97;;;2.10;;
76125;SDS011;65174;48.138;21.002;2023-06-10T10:35:21;2.42;;;1.88;;
76125;SDS011;65174;48.138;21.002;2023-06-10T10:38:25;3.80;;;1.98;;
76125;SDS011;65174;48.138;21.002;2023-06-10T10:41:27;3.92;;;2.22;;
76125;SDS011;65174;48.138;21.002;2023-06-10T10:44:31;2.33;;;1.83;;
76125;SDS011;65174;48.138;21.002;2023-06-10T10:47:33;1.75;;;1.50;;
76125;SDS011;65174;48.138;21.002;2023-06-10T10:50:38;1.75;;;1.65;;
76125;SDS011;65174;48.138;21.002;2023-06-10T10:53:40;1.67;;;1.45;;
76125;SDS011;65174;48.138;21.002;2023-06-10T11:00:32;1.70;;;1.60;;
76125;SDS011;65174;48.138;21.002;2023-06-10T11:03:46;1.73;;;1.63;;
76125;SDS011;65174;48.138;21.002;2023-06-10T11:06:52;2.65;;;1.80;;
76125;SDS011;65174;48.138;21.002;2023-06-10T11:13:07;2.83;;;1.88;;
76125;SDS011;65174;48.138;21.002;2023-06-10T11:16:11;1.73;;;1.63;;
76125;SDS011;65174;48.138;21.002;2023-06-10T11:22:58;1.55;;;1.38;;
76125;SDS011;65174;48.138;21.002;2023-06-10T11:29:29;2.33;;;2.15;;
76125;SDS011;65174;48.138;21.002;2023-06-10T11:32:32;1.87;;;1.63;;
76125;SDS011;65174;48.138;21.002;2023-06-10T11:35:35;2.03;;;1.65;;
76125;SDS011;65174;48.138;21.002;2023-06-10T11:38:37;1.77;;;1.65;;
76125;SDS011;65174;48.138;21.002;2023-06-10T11:41:39;1.75;;;1.48;;
76125;SDS011;65174;48.138;21.002;2023-06-10T11:44:47;2.75;;;1.85;;
76125;SDS011;65174;48.138;21.002;2023-06-10T11:47:58;2.23;;;1.90;;
76125;SDS011;65174;48.138;21.002;2023-06-10T11:51:01;4.10;;;1.70;;
76125;SDS011;65174;48.138;21.002;2023-06-10T11:54:10;2.22;;;1.75;;
76125;SDS011;65174;48.138;21.002;2023-06-10T11:57:12;1.83;;;1.55;;
76125;SDS011;65174;48.138;21.002;2023-06-10T12:00:14;1.92;;;1.58;;
76125;SDS011;65174;48.138;21.002;2023-06-10T12:03:17;1.83;;;1.70;;
76125;SDS011;65174;48.138;21.002;2023-06-10T12:06:19;3.10;;;2.28;;
76125;SDS011;65174;48.138;21.002;2023-06-10T12:09:23;4.38;;;2.47;;
76125;SDS011;65174;48.138;21.002;2023-06-10T12:12:28;2.20;;;1.80;;
76125;SDS011;65174;48.138;21.002;2023-06-10T12:15:31;2.08;;;1.88;;
76125;SDS011;65174;48.138;21.002;2023-06-10T12:18:34;2.83;;;2.03;;
76125;SDS011;65174;48.138;21.002;2023-06-10T12:21:36;1.85;;;1.55;;
76125;SDS011;65174;48.138;21.002;2023-06-10T12:28:00;2.50;;;1.80;;
76125;SDS011;65174;48.138;21.002;2023-06-10T12:31:08;1.70;;;1.60;;
76125;SDS011;65174;48.138;21.002;2023-06-10T12:34:10;2.50;;;1.90;;
76125;SDS011;65174;48.138;21.002;2023-06-10T12:37:12;3.85;;;1.92;;
76125;SDS011;65174;48.138;21.002;2023-06-10T12:40:18;2.20;;;1.67;;
76125;SDS011;65174;48.138;21.002;2023-06-10T12:43:26;2.15;;;1.65;;
76125;SDS011;65174;48.138;21.002;2023-06-10T12:46:35;2.40;;;2.05;;
76125;SDS011;65174;48.138;21.002;2023-06-10T12:49:38;3.27;;;1.60;;
76125;SDS011;65174;48.138;21.002;2023-06-10T12:52:40;2.33;;;2.13;;
76125;SDS011;65174;48.138;21.002;2023-06-10T12:55:42;2.08;;;1.88;;
76125;SDS011;65174;48.138;21.002;2023-06-10T12:58:46;2.63;;;1.80;;
76125;SDS011;65174;48.138;21.002;2023-06-10T13:01:51;3.10;;;2.03;;
76125;SDS011;65174;48.138;21.002;2023-06-10T13:04:53;2.10;;;1.90;;
76125;SDS011;65174;48.138;21.002;2023-06-10T13:07:56;2.30;;;1.80;;
76125;SDS011;65174;48.138;21.002;2023-06-10T13:10:58;2.15;;;1.70;;
76125;SDS011;65174;48.138;21.002;2023-06-10T13:14:01;2.60;;;2.00;;
76125;SDS011;65174;48.138;21.002;2023-06-10T13:17:04;2.83;;;2.20;;
76125;SDS011;65174;48.138;21.002;2023-06-10T13:20:09;1.73;;;1.63;;
76125;SDS011;65174;48.138;21.002;2023-06-10T13:23:12;1.98;;;1.77;;
76125;SDS011;65174;48.138;21.002;2023-06-10T13:26:15;2.45;;;2.00;;
76125;SDS011;65174;48.138;21.002;2023-06-10T13:29:19;2.33;;;1.90;;
76125;SDS011;65174;48.138;21.002;2023-06-10T13:32:21;2.15;;;1.55;;
76125;SDS011;65174;48.138;21.002;2023-06-10T13:35:32;1.57;;;1.47;;
76125;SDS011;65174;48.138;21.002;2023-06-10T13:39:33;2.83;;;1.50;;
76125;SDS011;65174;48.138;21.002;2023-06-10T13:43:30;4.40;;;1.60;;
76125;SDS011;65174;48.138;21.002;2023-06-10T13:47:27;2.20;;;1.65;;
76125;SDS011;65174;48.138;21.002;2023-06-10T13:51:23;2.05;;;1.60;;
76125;SDS011;65174;48.138;21.002;2023-06-10T13:55:20;2.27;;;1.90;;
76125;SDS011;65174;48.138;21.002;2023-06-10T13:59:18;2.35;;;1.95;;
76125;SDS011;65174;48.138;21.002;2023-06-10T14:03:13;1.73;;;1.52;;
76125;SDS011;65174;48.138;21.002;2023-06-10T14:07:10;1.63;;;1.40;;
76125;SDS011;65174;48.138;21.002;2023-06-10T14:11:07;4.88;;;2.33;;
76125;SDS011;65174;48.138;21.002;2023-06-10T14:15:04;2.03;;;1.83;;
76125;SDS011;65174;48.138;21.002;2023-06-10T14:19:00;2.40;;;1.95;;
76125;SDS011;65174;48.138;21.002;2023-06-10T14:22:57;1.63;;;1.48;;
76125;SDS011;65174;48.138;21.002;2023-06-10T14:26:54;2.60;;;1.98;;
76125;SDS011;65174;48.138;21.002;2023-06-10T14:30:50;1.88;;;1.77;;
76125;SDS011;65174;48.138;21.002;2023-06-10T14:34:47;4.50;;;2.10;;
76125;SDS011;65174;48.138;21.002;2023-06-10T14:38:44;3.22;;;2.00;;
76125;SDS011;65174;48.138;21.002;2023-06-10T14:42:41;5.20;;;2.00;;
76125;SDS011;65174;48.138;21.002;2023-06-10T14:46:37;2.90;;;2.60;;
76125;SDS011;65174;48.138;21.002;2023-06-10T14:50:37;2.78;;;2.28;;
76125;SDS011;65174;48.138;21.002;2023-06-10T14:54:33;3.93;;;3.53;;
76125;SDS011;65174;48.138;21.002;2023-06-10T14:58:30;2.78;;;2.10;;
76125;SDS011;65174;48.138;21.002;2023-06-10T15:02:27;3.38;;;2.40;;
76125;SDS011;65174;48.138;21.002;2023-06-10T15:06:24;3.40;;;2.42;;
76125;SDS011;65174;48.138;21.002;2023-06-10T15:10:20;5.43;;;3.00;;
76125;SDS011;65174;48.138;21.002;2023-06-10T15:14:18;3.53;;;2.63;;
76125;SDS011;65174;48.138;21.002;2023-06-10T15:18:15;4.38;;;3.25;;
76125;SDS011;65174;48.138;21.002;2023-06-10T15:22:11;4.68;;;3.50;;
76125;SDS011;65174;48.138;21.002;2023-06-10T15:26:10;3.22;;;2.92;;
76125;SDS011;65174;48.138;21.002;2023-06-10T15:30:07;5.60;;;3.63;;
76125;SDS011;65174;48.138;21.002;2023-06-10T15:34:03;7.13;;;3.53;;
76125;SDS011;65174;48.138;21.002;2023-06-10T15:38:03;2.63;;;2.42;;
76125;SDS011;65174;48.138;21.002;2023-06-10T15:42:00;5.35;;;2.20;;
76125;SDS011;65174;48.138;21.002;2023-06-10T15:45:57;4.05;;;2.40;;
76125;SDS011;65174;48.138;21.002;2023-06-10T15:49:54;2.83;;;2.55;;
76125;SDS011;65174;48.138;21.002;2023-06-10T15:53:50;8.07;;;2.87;;
76125;SDS011;65174;48.138;21.002;2023-06-10T15:57:47;3.90;;;2.08;;
76125;SDS011;65174;48.138;21.002;2023-06-10T16:01:44;5.40;;;3.28;;
76125;SDS011;65174;48.138;21.002;2023-06-10T16:05:41;4.18;;;2.78;;
76125;SDS011;65174;48.138;21.002;2023-06-10T16:09:37;4.32;;;3.08;;
76125;SDS011;65174;48.138;21.002;2023-06-10T16:13:34;6.37;;;3.70;;
76125;SDS011;65174;48.138;21.002;2023-06-10T16:17:31;6.45;;;3.78;;
76125;SDS011;65174;48.138;21.002;2023-06-10T16:21:28;4.60;;;3.40;;
76125;SDS011;65174;48.138;21.002;2023-06-10T16:25:24;4.10;;;2.85;;
76125;SDS011;65174;48.138;21.002;2023-06-10T16:29:21;3.22;;;2.20;;
76125;SDS011;65174;48.138;21.002;2023-06-10T16:33:18;2.70;;;2.17;;
76125;SDS011;65174;48.138;21.002;2023-06-10T16:37:14;2.47;;;1.67;;
76125;SDS011;65174;48.138;21.002;2023-06-10T16:41:11;1.83;;;1.60;;
76125;SDS011;65174;48.138;21.002;2023-06-10T16:45:08;2.70;;;1.67;;
76125;SDS011;65174;48.138;21.002;2023-06-10T16:49:04;2.13;;;1.83;;
76125;SDS011;65174;48.138;21.002;2023-06-10T16:53:05;2.77;;;2.40;;
76125;SDS011;65174;48.138;21.002;2023-06-10T16:57:02;2.88;;;2.33;;
76125;SDS011;65174;48.138;21.002;2023-06-10T17:01:01;4.43;;;2.08;;
76125;SDS011;65174;48.138;21.002;2023-06-10T17:04:55;3.40;;;2.20;;
76125;SDS011;65174;48.138;21.002;2023-06-10T17:08:52;3.45;;;3.05;;
76125;SDS011;65174;48.138;21.002;2023-06-10T17:12:49;8.30;;;4.00;;
76125;SDS011;65174;48.138;21.002;2023-06-10T17:16:46;4.97;;;3.85;;
76125;SDS011;65174;48.138;21.002;2023-06-10T17:20:42;5.45;;;4.22;;
76125;SDS011;65174;48.138;21.002;2023-06-10T17:24:39;6.20;;;5.15;;
76125;SDS011;65174;48.138;21.002;2023-06-10T17:28:36;7.63;;;4.60;;
76125;SDS011;65174;48.138;21.002;2023-06-10T17:31:38;6.40;;;4.80;;
76125;SDS011;65174;48.138;21.002;2023-06-10T17:34:40;6.25;;;4.60;;
76125;SDS011;65174;48.138;21.002;2023-06-10T17:37:42;5.03;;;3.90;;
76125;SDS011;65174;48.138;21.002;2023-06-10T17:40:44;4.95;;;3.90;;
76125;SDS011;65174;48.138;21.002;2023-06-10T17:43:46;5.97;;;4.40;;
76125;SDS011;65174;48.138;21.002;2023-06-10T17:46:48;7.60;;;4.23;;
76125;SDS011;65174;48.138;21.002;2023-06-10T17:49:50;5.72;;;4.43;;
76125;SDS011;65174;48.138;21.002;2023-06-10T17:52:52;5.10;;;4.15;;
76125;SDS011;65174;48.138;21.002;2023-06-10T17:55:54;4.63;;;3.55;;
76125;SDS011;65174;48.138;21.002;2023-06-10T17:58:56;5.50;;;3.38;;
76125;SDS011;65174;48.138;21.002;2023-06-10T18:01:58;4.97;;;3.00;;
76125;SDS011;65174;48.138;21.002;2023-06-10T18:05:00;4.15;;;2.78;;
76125;SDS011;65174;48.138;21.002;2023-06-10T18:08:02;2.70;;;2.22;;
76125;SDS011;65174;48.138;21.002;2023-06-10T18:11:04;3.03;;;2.30;;
76125;SDS011;65174;48.138;21.002;2023-06-10T18:14:06;3.13;;;2.67;;
76125;SDS011;65174;48.138;21.002;2023-06-10T18:17:08;2.97;;;2.67;;
76125;SDS011;65174;48.138;21.002;2023-06-10T18:20:10;3.50;;;3.15;;
76125;SDS011;65174;48.138;21.002;2023-06-10T18:23:13;3.63;;;2.90;;
76125;SDS011;65174;48.138;21.002;2023-06-10T18:26:15;4.35;;;3.13;;
76125;SDS011;65174;48.138;21.002;2023-06-10T18:29:17;3.22;;;2.90;;
76125;SDS011;65174;48.138;21.002;2023-06-10T18:32:19;3.80;;;3.37;;
76125;SDS011;65174;48.138;21.002;2023-06-10T18:35:21;3.47;;;3.17;;
76125;SDS011;65174;48.138;21.002;2023-06-10T18:38:23;12.82;;;3.50;;
76125;SDS011;65174;48.138;21.002;2023-06-10T18:41:26;4.10;;;3.70;;
76125;SDS011;65174;48.138;21.002;2023-06-10T18:44:29;4.32;;;3.92;;
76125;SDS011;65174;48.138;21.002;2023-06-10T18:47:31;5.60;;;4.23;;
76125;SDS011;65174;48.138;21.002;2023-06-10T18:50:53;5.82;;;4.85;;
76125;SDS011;65174;48.138;21.002;2023-06-10T18:53:55;7.28;;;4.97;;
76125;SDS011;65174;48.138;21.002;2023-06-10T18:56:57;7.28;;;5.32;;
76125;SDS011;65174;48.138;21.002;2023-06-10T18:59:59;7.85;;;4.82;;
76125;SDS011;65174;48.138;21.002;2023-06-10T19:03:02;6.93;;;5.03;;
76125;SDS011;65174;48.138;21.002;2023-06-10T19:06:04;7.25;;;5.53;;
76125;SDS011;65174;48.138;21.002;2023-06-10T19:09:07;6.82;;;4.72;;
76125;SDS011;65174;48.138;21.002;2023-06-10T19:12:09;5.47;;;4.90;;
76125;SDS011;65174;48.138;21.002;2023-06-10T19:15:11;5.45;;;4.90;;
76125;SDS011;65174;48.138;21.002;2023-06-10T19:18:13;6.43;;;4.97;;
76125;SDS011;65174;48.138;21.002;2023-06-10T19:21:15;5.55;;;4.50;;